createdAt,value
2023-01-05T00:02:44.056Z,9.21
2023-01-05T00:05:30.414Z,9.24
2023-01-05T00:08:16.613Z,9.24
2023-01-05T00:11:23.404Z,9.21
2023-01-05T00:14:28.805Z,9.21
2023-01-05T00:17:33.262Z,9.24
2023-01-05T00:20:37.526Z,9.23
2023-01-05T00:23:23.548Z,9.25
2023-01-05T00:26:10.664Z,9.28
2023-01-05T00:28:56.399Z,9.26
2023-01-05T00:31:42.220Z,9.27
2023-01-05T00:34:28.565Z,9.24
2023-01-05T00:37:14.624Z,9.21
2023-01-05T00:40:00.479Z,9.23
2023-01-05T00:42:47.751Z,9.19
2023-01-05T00:45:33.991Z,9.21
2023-01-05T00:48:20.237Z,9.19
2023-01-05T00:51:06.105Z,9.17
2023-01-05T00:53:52.215Z,9.19
2023-01-05T00:56:38.087Z,9.19
2023-01-05T00:59:25.345Z,9.19
2023-01-05T01:02:12.048Z,9.21
2023-01-05T01:04:57.944Z,9.22
2023-01-05T01:07:43.787Z,9.21
2023-01-05T01:10:29.629Z,9.22
2023-01-05T01:13:16.389Z,9.21
2023-01-05T01:16:08.056Z,9.20
2023-01-05T01:18:53.916Z,9.21
2023-01-05T01:21:40.338Z,9.24
2023-01-05T01:24:27.394Z,9.25
2023-01-05T01:27:13.249Z,9.25
2023-01-05T01:29:59.344Z,9.26
2023-01-05T01:32:46.424Z,9.26
2023-01-05T01:35:32.190Z,9.27
2023-01-05T01:38:17.916Z,9.27
2023-01-05T01:41:04.322Z,9.27
2023-01-05T01:43:50.772Z,9.28
2023-01-05T01:46:38.581Z,9.24
2023-01-05T01:49:25.708Z,9.26
2023-01-05T01:52:11.948Z,9.28
2023-01-05T01:54:57.640Z,9.27
2023-01-05T01:57:43.806Z,9.24
2023-01-05T02:00:30.178Z,9.22
2023-01-05T02:03:16.754Z,9.21
2023-01-05T02:06:04.470Z,9.17
2023-01-05T02:08:50.268Z,9.12
2023-01-05T02:11:39.532Z,9.11
2023-01-05T02:14:34.819Z,9.09
2023-01-05T02:17:24.113Z,9.08
2023-01-05T02:20:27.980Z,9.08
2023-01-05T02:23:25.168Z,9.06
2023-01-05T02:26:29.084Z,9.05
2023-01-05T02:29:25.147Z,9.04
2023-01-05T02:32:14.682Z,8.98
2023-01-05T02:35:03.187Z,8.96
2023-01-05T02:37:49.664Z,8.96
2023-01-05T02:40:36.728Z,8.90
2023-01-05T02:43:23.949Z,8.90
2023-01-05T02:46:09.673Z,8.88
2023-01-05T02:48:57.543Z,8.89
2023-01-05T02:51:44.754Z,8.83
2023-01-05T02:54:32.688Z,8.79
2023-01-05T02:57:19.370Z,8.78
2023-01-05T03:00:05.951Z,8.74
2023-01-05T03:02:53.207Z,8.73
2023-01-05T03:05:41.739Z,8.75
2023-01-05T03:08:32.776Z,8.75
2023-01-05T03:11:40.263Z,8.71
2023-01-05T03:14:26.739Z,8.73
2023-01-05T03:17:13.897Z,8.74
2023-01-05T03:20:04.857Z,8.73
2023-01-05T03:23:11.292Z,8.71
2023-01-05T03:26:15.144Z,8.71
2023-01-05T03:29:19.443Z,8.71
2023-01-05T03:32:30.247Z,8.71
2023-01-05T03:35:34.417Z,8.69
2023-01-05T03:38:24.976Z,8.72
2023-01-05T03:41:10.919Z,8.71
2023-01-05T03:43:58.861Z,8.68
2023-01-05T03:46:44.724Z,8.72
2023-01-05T03:49:30.905Z,8.72
2023-01-05T03:52:18.257Z,8.72
2023-01-05T03:55:06.464Z,8.71
2023-01-05T03:57:52.553Z,8.69
2023-01-05T04:00:40.454Z,8.67
2023-01-05T04:03:31.945Z,8.65
2023-01-05T04:06:19.932Z,8.69
2023-01-05T04:09:07.137Z,8.69
2023-01-05T04:11:54.896Z,8.69
2023-01-05T04:14:41.214Z,8.68
2023-01-05T04:17:27.483Z,8.67
2023-01-05T04:20:13.826Z,8.68
2023-01-05T04:23:00.134Z,8.65
2023-01-05T04:25:47.347Z,8.66
2023-01-05T04:28:39.700Z,8.65
2023-01-05T04:31:28.689Z,8.65
2023-01-05T04:34:15.756Z,8.64
2023-01-05T04:37:03.455Z,8.64
2023-01-05T04:39:50.879Z,8.65
2023-01-05T04:42:37.090Z,8.62
2023-01-05T04:45:24.375Z,8.62
2023-01-05T04:48:10.467Z,8.60
2023-01-05T04:50:57.392Z,8.59
2023-01-05T04:53:52.821Z,8.59
2023-01-05T04:56:41.478Z,8.55
2023-01-05T04:59:28.289Z,8.53
2023-01-05T05:02:18.108Z,8.52
2023-01-05T05:05:04.416Z,8.49
2023-01-05T05:07:51.057Z,8.48
2023-01-05T05:10:37.314Z,8.50
2023-01-05T05:13:24.109Z,8.48
2023-01-05T05:16:11.762Z,8.48
2023-01-05T05:19:01.145Z,8.47
2023-01-05T05:21:47.513Z,8.45
2023-01-05T05:24:33.742Z,8.47
2023-01-05T05:27:19.624Z,8.46
2023-01-05T05:30:05.966Z,8.48
2023-01-05T05:32:51.705Z,8.48
2023-01-05T05:35:38.645Z,8.50
2023-01-05T05:38:24.507Z,8.47
2023-01-05T05:41:10.250Z,8.49
2023-01-05T05:44:00.645Z,8.49
2023-01-05T05:46:46.808Z,8.50
2023-01-05T05:49:32.513Z,8.48
2023-01-05T05:52:20.003Z,8.45
2023-01-05T05:55:06.317Z,8.48
2023-01-05T05:57:52.069Z,8.46
2023-01-05T06:00:38.037Z,8.45
2023-01-05T06:03:23.895Z,8.47
2023-01-05T06:06:09.773Z,8.45
2023-01-05T06:08:56.958Z,8.41
2023-01-05T06:11:42.586Z,8.44
2023-01-05T06:14:28.311Z,8.41
2023-01-05T06:17:14.084Z,8.41
2023-01-05T06:20:00.237Z,8.41
2023-01-05T06:22:46.000Z,8.43
2023-01-05T06:25:33.118Z,8.43
2023-01-05T06:28:20.505Z,8.42
2023-01-05T06:31:06.858Z,8.40
2023-01-05T06:33:52.899Z,8.38
2023-01-05T06:36:38.707Z,8.38
2023-01-05T06:39:24.744Z,8.40
2023-01-05T06:42:11.912Z,8.41
2023-01-05T06:44:57.607Z,8.40
2023-01-05T06:47:43.630Z,8.39
2023-01-05T06:50:30.356Z,8.41
2023-01-05T06:53:16.203Z,8.40
2023-01-05T06:56:02.157Z,8.40
2023-01-05T06:58:49.239Z,8.42
2023-01-05T07:01:35.292Z,8.41
2023-01-05T07:04:21.395Z,8.44
2023-01-05T07:07:07.081Z,8.40
2023-01-05T07:09:52.926Z,8.41
2023-01-05T07:12:38.744Z,8.44
2023-01-05T07:15:25.799Z,8.41
2023-01-05T07:18:12.146Z,8.44
2023-01-05T07:20:59.957Z,8.43
2023-01-05T07:23:46.092Z,8.42
2023-01-05T07:26:31.842Z,8.43
2023-01-05T07:29:17.559Z,8.43
2023-01-05T07:32:04.974Z,8.43
2023-01-05T07:34:55.723Z,8.44
2023-01-05T07:37:43.190Z,8.44
2023-01-05T07:40:28.855Z,8.43
2023-01-05T07:43:16.371Z,8.42
2023-01-05T07:46:02.947Z,8.43
2023-01-05T07:48:49.926Z,8.44
2023-01-05T07:51:35.733Z,8.43
2023-01-05T07:54:21.698Z,8.43
2023-01-05T07:57:07.629Z,8.43
2023-01-05T07:59:53.384Z,8.41
2023-01-05T08:02:39.348Z,8.43
2023-01-05T08:05:30.166Z,8.41
2023-01-05T08:08:22.247Z,8.42
2023-01-05T08:11:10.506Z,8.46
2023-01-05T08:14:02.814Z,8.40
2023-01-05T08:16:49.419Z,8.44
2023-01-05T08:19:35.745Z,8.42
2023-01-05T08:22:22.669Z,8.46
2023-01-05T08:25:08.830Z,8.48
2023-01-05T08:27:54.724Z,8.50
2023-01-05T08:30:40.488Z,8.48
2023-01-05T08:33:26.416Z,8.47
2023-01-05T08:36:13.236Z,8.48
2023-01-05T08:39:01.405Z,8.53
2023-01-05T08:41:48.351Z,8.54
2023-01-05T08:44:34.120Z,8.56
2023-01-05T08:47:20.211Z,8.57
2023-01-05T08:50:09.359Z,8.54
2023-01-05T08:52:55.346Z,8.57
2023-01-05T08:55:42.541Z,8.58
2023-01-05T08:58:28.408Z,8.60
2023-01-05T09:01:15.468Z,8.60
2023-01-05T09:04:01.314Z,8.62
2023-01-05T09:06:47.136Z,8.62
2023-01-05T09:09:33.040Z,8.68
2023-01-05T09:12:20.368Z,8.73
2023-01-05T09:15:06.907Z,8.79
2023-01-05T09:17:52.675Z,8.82
2023-01-05T09:20:40.194Z,8.86
2023-01-05T09:23:26.394Z,8.86
2023-01-05T09:26:12.703Z,8.91
2023-01-05T09:28:59.921Z,8.96
2023-01-05T09:31:45.803Z,8.97
2023-01-05T09:34:31.642Z,8.96
2023-01-05T09:37:17.816Z,9.02
2023-01-05T09:40:03.916Z,9.07
2023-01-05T09:42:49.607Z,9.07
2023-01-05T09:45:36.723Z,9.08
2023-01-05T09:48:22.428Z,9.09
2023-01-05T09:51:08.548Z,9.12
2023-01-05T09:53:54.610Z,9.17
2023-01-05T09:57:08.484Z,9.25
2023-01-05T09:59:46.933Z,9.30
2023-01-05T10:02:34.678Z,9.37
2023-01-05T10:05:20.630Z,9.41
2023-01-05T10:08:08.334Z,9.43
2023-01-05T10:11:09.578Z,9.44
2023-01-05T10:13:57.639Z,9.48
2023-01-05T10:16:44.670Z,9.46
2023-01-05T10:19:32.094Z,9.47
2023-01-05T10:22:22.254Z,9.49
2023-01-05T10:25:09.558Z,9.45
2023-01-05T10:27:57.194Z,9.49
2023-01-05T10:30:46.139Z,9.50
2023-01-05T10:33:51.624Z,9.54
2023-01-05T10:39:56.711Z,9.51
2023-01-05T10:42:46.166Z,9.56
2023-01-05T10:45:31.890Z,9.59
2023-01-05T10:48:18.648Z,9.63
2023-01-05T10:51:04.766Z,9.65
2023-01-05T10:53:52.159Z,9.72
2023-01-05T10:56:37.966Z,9.80
2023-01-05T10:59:23.751Z,9.88
2023-01-05T11:02:20.285Z,9.88
2023-01-05T11:05:07.219Z,9.92
2023-01-05T11:07:54.162Z,9.97
2023-01-05T11:10:42.221Z,10.00
2023-01-05T11:13:29.742Z,10.04
2023-01-05T11:16:16.458Z,10.01
2023-01-05T11:19:02.592Z,10.03
2023-01-05T11:21:48.854Z,10.03
2023-01-05T11:24:35.396Z,10.04
2023-01-05T11:27:26.187Z,10.00
2023-01-05T11:30:18.351Z,9.96
2023-01-05T11:33:04.181Z,9.96
2023-01-05T11:35:50.828Z,9.90
2023-01-05T11:38:36.856Z,9.96
2023-01-05T11:41:22.936Z,9.91
2023-01-05T11:44:10.957Z,9.98
2023-01-05T11:46:56.654Z,9.98
2023-01-05T11:49:42.945Z,10.01
2023-01-05T11:52:29.979Z,9.95
2023-01-05T11:55:30.840Z,9.91
2023-01-05T11:58:21.402Z,9.86
2023-01-05T12:01:13.397Z,9.60
2023-01-05T12:04:01.300Z,9.64
2023-01-05T12:06:51.665Z,9.56
2023-01-05T12:09:38.218Z,9.53
2023-01-05T12:12:37.421Z,9.47
2023-01-05T12:15:29.301Z,9.41
2023-01-05T12:18:20.303Z,9.38
2023-01-05T12:21:07.270Z,9.33
2023-01-05T12:23:59.891Z,9.24
2023-01-05T12:26:47.063Z,9.27
2023-01-05T12:36:05.218Z,9.22
2023-01-05T12:38:53.972Z,9.13
2023-01-05T12:41:54.097Z,9.05
2023-01-05T12:44:44.186Z,9.07
2023-01-05T12:47:34.233Z,9.04
2023-01-05T12:50:22.106Z,9.04
2023-01-05T12:53:11.949Z,9.00
2023-01-05T12:55:58.585Z,8.98
2023-01-05T12:58:52.113Z,8.98
2023-01-05T13:01:41.506Z,9.00
2023-01-05T13:04:41.418Z,8.95
2023-01-05T13:07:30.814Z,8.91
2023-01-05T13:10:19.337Z,8.93
2023-01-05T13:13:06.192Z,8.90
2023-01-05T13:15:53.851Z,8.91
2023-01-05T13:18:40.996Z,8.92
2023-01-05T13:21:27.027Z,8.92
2023-01-05T13:24:14.297Z,8.90
2023-01-05T13:27:01.336Z,8.87
2023-01-05T13:29:47.504Z,8.83
2023-01-05T13:32:36.581Z,8.84
2023-01-05T13:35:24.798Z,8.74
2023-01-05T13:38:25.492Z,8.77
2023-01-05T13:41:18.518Z,8.68
2023-01-05T13:44:34.847Z,8.61
2023-01-05T13:47:37.463Z,8.62
2023-01-05T13:50:44.650Z,8.61
2023-01-05T13:53:30.860Z,8.53
2023-01-05T13:56:18.607Z,8.54
2023-01-05T13:59:09.576Z,8.52
2023-01-05T14:02:01.882Z,8.45
2023-01-05T14:04:48.944Z,8.38
2023-01-05T14:07:34.747Z,8.40
2023-01-05T14:10:21.455Z,8.40
2023-01-05T14:13:11.168Z,8.32
2023-01-05T14:15:57.253Z,8.31
2023-01-05T14:18:53.036Z,8.32
2023-01-05T14:21:46.877Z,8.25
2023-01-05T14:24:33.630Z,8.18
2023-01-05T14:27:19.921Z,8.20
2023-01-05T14:30:06.311Z,8.16
2023-01-05T14:32:55.686Z,8.06
2023-01-05T14:35:42.031Z,8.03
2023-01-05T14:38:29.303Z,8.00
2023-01-05T14:41:16.470Z,7.99
2023-01-05T14:44:02.768Z,7.97
2023-01-05T14:46:49.837Z,7.99
2023-01-05T14:49:36.245Z,7.97
2023-01-05T14:52:36.973Z,7.96
2023-01-05T14:55:37.749Z,7.93
2023-01-05T14:58:41.051Z,7.89
2023-01-05T15:01:27.797Z,7.89
2023-01-05T15:04:14.644Z,7.86
2023-01-05T15:07:10.259Z,7.85
2023-01-05T15:10:07.918Z,7.83
2023-01-05T15:13:00.109Z,7.86
2023-01-05T15:15:47.154Z,7.86
2023-01-05T15:19:00.052Z,7.80
2023-01-05T15:21:49.436Z,7.80
2023-01-05T15:24:59.556Z,7.76
2023-01-05T15:27:51.518Z,7.81
2023-01-05T15:30:57.786Z,7.82
2023-01-05T15:33:44.277Z,7.82
2023-01-05T15:36:30.491Z,7.78
2023-01-05T15:39:23.711Z,7.80
2023-01-05T15:42:09.667Z,7.81
2023-01-05T15:44:56.291Z,7.80
2023-01-05T15:47:43.554Z,7.82
2023-01-05T15:50:30.586Z,7.81
2023-01-05T15:53:23.763Z,7.82
2023-01-05T15:56:25.492Z,7.83
2023-01-05T15:59:18.910Z,7.80
2023-01-05T16:02:08.722Z,7.80
2023-01-05T16:05:15.073Z,7.82
2023-01-05T16:08:03.358Z,7.82
2023-01-05T16:10:50.740Z,7.82
2023-01-05T16:13:38.344Z,7.82
2023-01-05T16:16:50.595Z,7.81
2023-01-05T16:19:31.998Z,7.84
2023-01-05T16:22:20.348Z,7.81
2023-01-05T16:25:07.950Z,7.82
2023-01-05T16:27:58.608Z,7.82
2023-01-05T16:30:44.676Z,7.83
2023-01-05T16:33:35.002Z,7.83
2023-01-05T16:36:21.934Z,7.82
2023-01-05T16:39:16.899Z,7.83
2023-01-05T16:42:20.384Z,7.82
2023-01-05T16:45:08.500Z,7.81
2023-01-05T16:47:54.932Z,7.83
2023-01-05T16:50:53.159Z,7.83
2023-01-05T16:53:41.378Z,7.82
2023-01-05T16:56:42.446Z,7.81
2023-01-05T16:59:46.667Z,7.82
2023-01-05T17:02:36.323Z,7.83
2023-01-05T17:05:23.476Z,7.83
2023-01-05T17:08:17.051Z,7.82
2023-01-05T17:11:03.233Z,7.81
2023-01-05T17:13:50.142Z,7.80
2023-01-05T17:16:37.403Z,7.80
2023-01-05T17:19:23.692Z,7.80
2023-01-05T17:22:11.734Z,7.81
2023-01-05T17:25:01.638Z,7.78
2023-01-05T17:27:47.845Z,7.78
2023-01-05T17:30:33.716Z,7.79
2023-01-05T17:33:20.850Z,7.75
2023-01-05T17:36:06.836Z,7.77
2023-01-05T17:38:52.887Z,7.77
2023-01-05T17:41:38.754Z,7.78
2023-01-05T17:44:24.823Z,7.78
2023-01-05T17:47:10.810Z,7.79
2023-01-05T17:49:58.270Z,7.77
2023-01-05T17:52:44.133Z,7.78
2023-01-05T17:55:30.232Z,7.77
2023-01-05T17:58:16.439Z,7.79
2023-01-05T18:01:02.547Z,7.78
2023-01-05T18:03:48.943Z,7.78
2023-01-05T18:06:38.449Z,7.77
2023-01-05T18:09:24.419Z,7.79
2023-01-05T18:12:10.733Z,7.79
2023-01-05T18:14:56.462Z,7.79
2023-01-05T18:17:44.807Z,7.77
2023-01-05T18:20:30.945Z,7.77
2023-01-05T18:23:21.138Z,7.78
2023-01-05T18:26:09.996Z,7.77
2023-01-05T18:28:55.920Z,7.77
2023-01-05T18:31:43.881Z,7.77
2023-01-05T18:34:32.801Z,7.75
2023-01-05T18:37:22.244Z,7.75
2023-01-05T18:40:10.598Z,7.74
2023-01-05T18:42:58.389Z,7.73
2023-01-05T18:45:44.012Z,7.72
2023-01-05T18:48:30.743Z,7.71
2023-01-05T18:51:16.567Z,7.70
2023-01-05T18:54:04.495Z,7.70
2023-01-05T18:56:51.814Z,7.67
2023-01-05T18:59:40.409Z,7.65
2023-01-05T19:02:27.277Z,7.68
2023-01-05T19:05:14.357Z,7.67
2023-01-05T19:08:00.360Z,7.66
2023-01-05T19:10:45.987Z,7.64
2023-01-05T19:13:33.189Z,7.63
2023-01-05T19:16:24.044Z,7.62
2023-01-05T19:19:15.038Z,7.63
2023-01-05T19:22:00.999Z,7.64
2023-01-05T19:24:46.821Z,7.67
2023-01-05T19:27:32.651Z,7.68
2023-01-05T19:30:21.957Z,7.69
2023-01-05T19:33:10.924Z,7.72
2023-01-05T19:36:01.631Z,7.75
2023-01-05T19:38:48.941Z,7.77
2023-01-05T19:41:35.089Z,7.77
2023-01-05T19:44:22.624Z,7.78
2023-01-05T19:47:10.089Z,7.80
2023-01-05T19:49:59.108Z,7.82
2023-01-05T19:52:44.911Z,7.84
2023-01-05T19:55:30.553Z,7.85
2023-01-05T19:58:16.454Z,7.87
2023-01-05T20:01:05.717Z,7.88
2023-01-05T20:03:55.400Z,7.89
2023-01-05T20:06:41.896Z,7.89
2023-01-05T20:09:30.527Z,7.90
2023-01-05T20:12:16.460Z,7.91
2023-01-05T20:15:02.169Z,7.90
2023-01-05T20:17:48.194Z,7.90
2023-01-05T20:20:37.784Z,7.91
2023-01-05T20:23:23.630Z,7.89
2023-01-05T20:26:10.465Z,7.88
2023-01-05T20:28:56.522Z,7.89
2023-01-05T20:31:43.191Z,7.88
2023-01-05T20:34:31.979Z,7.88
2023-01-05T20:37:19.651Z,7.86
2023-01-05T20:40:06.330Z,7.85
2023-01-05T20:42:52.520Z,7.85
2023-01-05T20:45:40.652Z,7.82
2023-01-05T20:48:26.687Z,7.77
2023-01-05T20:51:13.676Z,7.73
2023-01-05T20:54:04.081Z,7.74
2023-01-05T20:56:50.059Z,7.69
2023-01-05T20:59:40.601Z,7.67
2023-01-05T21:02:26.691Z,7.62
2023-01-05T21:05:13.592Z,7.62
2023-01-05T21:07:59.598Z,7.59
2023-01-05T21:10:46.659Z,7.56
2023-01-05T21:13:33.130Z,7.55
2023-01-05T21:16:20.332Z,7.54
2023-01-05T21:19:06.821Z,7.50
2023-01-05T21:21:54.193Z,7.53
2023-01-05T21:24:40.963Z,7.52
2023-01-05T21:27:28.200Z,7.52
2023-01-05T21:30:14.384Z,7.51
2023-01-05T21:33:00.731Z,7.51
2023-01-05T21:35:53.251Z,7.56
2023-01-05T21:39:01.338Z,7.58
2023-01-05T21:42:03.276Z,7.60
2023-01-05T21:44:50.761Z,7.63
2023-01-05T21:47:36.983Z,7.65
2023-01-05T21:50:41.106Z,7.68
2023-01-05T21:53:44.981Z,7.70
2023-01-05T21:56:31.537Z,7.74
2023-01-05T21:59:19.821Z,7.78
2023-01-05T22:02:07.585Z,7.79
2023-01-05T22:04:53.952Z,7.80
2023-01-05T22:07:39.820Z,7.81
2023-01-05T22:10:26.353Z,7.82
2023-01-05T22:13:12.169Z,7.84
2023-01-05T22:15:58.386Z,7.86
2023-01-05T22:18:46.106Z,7.89
2023-01-05T22:21:32.139Z,7.94
2023-01-05T22:24:18.043Z,7.95
2023-01-05T22:27:04.899Z,7.96
2023-01-05T22:29:56.237Z,7.97
2023-01-05T22:32:42.355Z,7.99
2023-01-05T22:35:31.905Z,8.00
2023-01-05T22:38:18.004Z,8.01
2023-01-05T22:41:04.064Z,8.02
2023-01-05T22:43:50.233Z,8.03
2023-01-05T22:46:43.548Z,8.03
2023-01-05T22:49:30.534Z,8.04
2023-01-05T22:52:17.671Z,8.06
2023-01-05T22:55:03.433Z,8.07
2023-01-05T22:57:49.131Z,8.08
2023-01-05T23:00:37.205Z,8.09
2023-01-05T23:03:23.406Z,8.09
2023-01-05T23:06:09.386Z,8.09
2023-01-05T23:08:56.736Z,8.09
2023-01-05T23:11:43.403Z,8.12
2023-01-05T23:14:29.782Z,8.15
2023-01-05T23:17:15.529Z,8.15
2023-01-05T23:20:01.250Z,8.15
2023-01-05T23:22:47.106Z,8.18
2023-01-05T23:25:35.699Z,8.18
2023-01-05T23:28:22.014Z,8.19
2023-01-05T23:31:07.960Z,8.17
2023-01-05T23:33:54.021Z,8.18
2023-01-05T23:36:39.743Z,8.19
2023-01-05T23:39:25.451Z,8.19
2023-01-05T23:42:32.692Z,8.20
2023-01-05T23:45:18.646Z,8.21
2023-01-05T23:48:04.870Z,8.21
2023-01-05T23:50:50.879Z,8.21
2023-01-05T23:53:36.875Z,8.23
2023-01-05T23:56:23.349Z,8.24
2023-01-05T23:59:15.244Z,8.23
